This is the latest recevied weather packets stored in our database for station/object VE3DVC. If no packets are shown the sender has not sent any weather packets the latest 1 day(s).
| Time | Temp. | Humidity | Pressure | Rain* | Wind** | Luminosity | Snow |
|---|---|---|---|---|---|---|---|
| 1778006851 | 15.56° C | 75% | 1006.2 hPa | 0 mm | 0.45 m/s, 228° | - | - |
| 1778006131 | 16.11° C | 74% | 1006.1 hPa | 0 mm | 0.45 m/s, 223° | - | - |
| 1778005410 | 16.11° C | 74% | 1006 hPa | 0 mm | 0 m/s | - | - |
| 1778004200 | 16.67° C | 73% | 1006.1 hPa | 0 mm | 0 m/s | - | - |
| 1778001770 | 16.11° C | 75% | 1005.3 hPa | 0 mm | 0.89 m/s, 259° | - | - |
| 1778001050 | 16.11° C | 76% | 1005.1 hPa | 0 mm | 0 m/s | - | - |
| 1778000331 | 16.11° C | 79% | 1005.2 hPa | 0 mm | 0 m/s | - | - |
| 1777999610 | 15.56° C | 81% | 1005.3 hPa | 0 mm | 0.45 m/s, 234° | - | - |
| 1777998890 | 15° C | 82% | 1005.3 hPa | 0 mm | 0.45 m/s, 259° | - | - |
| 1777998170 | 15° C | 83% | 1005.4 hPa | 0 mm | 0 m/s | - | - |
| 1777997451 | 15.56° C | 82% | 1005.5 hPa | 0 mm | 0 m/s | - | - |
| 1777996730 | 16.11° C | 80% | 1005.4 hPa | 0 mm | 0.89 m/s, 198° | - | - |
| 1777996011 | 16.67° C | 80% | 1005.1 hPa | 0 mm | 0.89 m/s, 211° | - | - |
| 1777995290 | 16.67° C | 80% | 1004.5 hPa | 0 mm | 1.34 m/s, 238° | - | - |
| 1777994570 | 16.67° C | 80% | 1004 hPa | 0 mm | 0.89 m/s, 221° | - | - |
| 1777993850 | 16.67° C | 80% | 1004.3 hPa | 0 mm | 0.45 m/s, 153° | - | - |
| 1777993130 | 16.67° C | 78% | 1004.4 hPa | 0 mm | 0.89 m/s, 202° | - | - |
| 1777992410 | 17.22° C | 79% | 1004.2 hPa | 0 mm | 0.89 m/s, 239° | - | - |
| 1777991690 | 17.22° C | 78% | 1003.9 hPa | 0 mm | 1.34 m/s, 224° | - | - |
| 1777990970 | 16.67° C | 79% | 1003 hPa | 0 mm | 1.34 m/s, 215° | - | - |
| 1777990250 | 16.11° C | 78% | 1003 hPa | 0 mm | 0.89 m/s, 227° | - | - |
| 1777989530 | 16.11° C | 80% | 1002.6 hPa | 0 mm | 0.45 m/s, 213° | - | - |
| 1777988485 | 16.11° C | 80% | 1003.1 hPa | 0 mm | 0.45 m/s, 174° | - | - |
| 1777987765 | 15.56° C | 82% | 1003.2 hPa | 0 mm | 0.45 m/s, 223° | - | - |
| 1777986326 | 15.56° C | 82% | 1003 hPa | 0 mm | 0 m/s | - | - |
* Rain latest hour (hover to see other rain measurements)
** Current wind speed in m/s (hover to see current wind gust speed)